Time;durP1;ratioP1;P1;durP2;ratioP2;P2;SDS_P1;SDS_P2;PMS_P1;PMS_P2;Temp;Humidity;BMP_temperature;BMP_pressure;BME280_temperature;BME280_humidity;BME280_pressure;Samples;Min_cycle;Max_cycle;Signal;HPM_P1;HPM_P2
2021/12/16 00:06:30;;;;;;;11.30;8.20;;;;;;;4.20;69.84;100035.95;30751;1364;3025999;-62
2021/12/16 00:09:00;;;;;;;15.60;13.70;;;;;;;4.48;68.64;100039.55;24397;1360;3055569;-62
2021/12/16 00:35:49;;;;;;;16.70;11.20;;;;;;;2.72;72.75;100047.86;24503;1357;3026276;-61
2021/12/16 00:38:18;;;;;;;17.50;9.80;;;;;;;2.65;73.02;100044.70;24501;1354;3027162;-62
2021/12/16 00:40:48;;;;;;;17.40;9.60;;;;;;;3.17;71.85;100041.07;24450;1357;3026440;-61
2021/12/16 00:46:32;;;;;;;16.90;10.10;;;;;;;3.81;69.47;100044.52;24460;1361;3055058;-62
2021/12/16 00:54:20;;;;;;;16.40;10.80;;;;;;;3.30;70.17;100049.11;24476;1353;3049820;-62
2021/12/16 00:56:56;;;;;;;17.10;11.40;;;;;;;3.19;70.33;100045.88;24494;1353;3026584;-61
2021/12/16 00:59:31;;;;;;;17.40;11.30;;;;;;;3.06;70.91;100044.42;24483;1354;3051984;-60
2021/12/16 01:07:56;;;;;;;;;;;;;;;2.71;72.24;100028.48;24489;1358;3054624;-61
2021/12/16 01:50:10;;;;;;;24.30;13.60;;;;;;;2.64;71.83;100058.39;24524;1355;3054441;-61
2021/12/16 01:55:21;;;;;;;23.90;14.20;;;;;;;2.53;72.27;100068.80;24444;1357;3027115;-61
2021/12/16 01:57:55;;;;;;;20.70;10.10;;;;;;;2.40;73.04;100071.61;24521;1357;3049542;-61
2021/12/16 02:00:31;;;;;;;23.00;13.50;;;;;;;3.06;71.78;100065.54;24512;1354;3052877;-61
2021/12/16 02:03:03;;;;;;;21.40;12.90;;;;;;;3.74;69.71;100062.00;24461;1359;3053106;-60
2021/12/16 02:10:44;;;;;;;24.40;14.90;;;;;;;3.50;69.30;100061.50;24489;1360;3027177;-61
2021/12/16 02:37:44;;;;;;;25.40;13.30;;;;;;;2.96;72.09;100034.40;24509;1358;3028841;-61
2021/12/16 02:40:13;;;;;;;25.10;13.60;;;;;;;3.65;70.18;100033.95;24483;1358;3052119;-61
2021/12/16 02:42:59;;;;;;;25.40;14.90;;;;;;;3.62;69.01;100027.78;24508;1356;3028787;-59
2021/12/16 02:48:29;;;;;;;26.70;13.20;;;;;;;3.53;69.49;100035.80;24495;1358;3068201;-62
2021/12/16 02:48:34;;;;;;;27.40;15.60;;;;;;;3.27;70.12;100031.35;24478;1359;3049634;-63
2021/12/16 02:51:13;;;;;;;27.10;15.20;;;;;;;3.12;70.54;100038.23;24493;1355;3026174;-60
2021/12/16 02:53:47;;;;;;;28.60;15.70;;;;;;;3.00;70.99;100038.32;24472;1358;3055043;-59
2021/12/16 02:56:17;;;;;;;29.10;16.40;;;;;;;2.91;71.23;100040.05;24506;1360;3059050;-61
2021/12/16 02:58:49;;;;;;;27.00;14.40;;;;;;;2.73;71.93;100039.02;24455;1359;3028548;-61
2021/12/16 03:01:28;;;;;;;27.20;14.80;;;;;;;2.67;71.77;100037.39;24512;1357;3052091;-62
2021/12/16 03:03:58;;;;;;;29.30;14.70;;;;;;;2.66;72.04;100041.06;24489;1357;3059224;-61
2021/12/16 03:06:30;;;;;;;29.00;15.10;;;;;;;2.63;72.45;100046.46;24497;1360;3027063;-60
2021/12/16 03:09:10;;;;;;;25.80;14.50;;;;;;;2.60;72.42;100044.29;24517;1352;3055288;-61
2021/12/16 03:14:43;;;;;;;20.50;10.90;;;;;;;3.29;70.97;100040.48;24397;1360;3071698;-60
2021/12/16 03:17:22;;;;;;;19.50;11.70;;;;;;;3.79;68.58;100037.60;24495;1360;3052955;-60
2021/12/16 03:20:05;;;;;;;20.40;12.20;;;;;;;3.91;68.30;100037.16;24496;1348;3052879;-64
2021/12/16 03:28:10;;;;;;;20.50;12.60;;;;;;;3.40;69.07;100043.19;24492;1351;3049568;-61
2021/12/16 03:39:07;;;;;;;21.20;12.40;;;;;;;2.85;70.79;100051.41;24486;1357;3050060;-60
2021/12/16 03:41:36;;;;;;;24.90;14.20;;;;;;;2.73;71.54;100052.52;24465;1362;3055117;-59
2021/12/16 03:44:09;;;;;;;23.40;13.80;;;;;;;2.69;71.92;100049.30;24483;1360;3026485;-62
2021/12/16 03:46:43;;;;;;;20.70;13.30;;;;;;;2.59;72.30;100048.45;24452;1353;3049860;-60
2021/12/16 03:49:19;;;;;;;23.60;14.80;;;;;;;2.55;72.48;100051.80;24508;1360;3026424;-60
2021/12/16 03:51:57;;;;;;;23.80;12.80;;;;;;;2.54;72.84;100055.44;24468;1358;3051440;-61
2021/12/16 03:54:28;;;;;;;20.80;12.70;;;;;;;3.06;71.21;100052.90;24469;1355;3059045;-60
2021/12/16 03:57:05;;;;;;;22.50;12.90;;;;;;;3.65;69.05;100049.73;24510;1357;3049128;-61
2021/12/16 03:59:36;;;;;;;22.50;13.20;;;;;;;3.95;68.63;100052.33;24529;1360;3026406;-60
2021/12/16 04:02:27;;;;;;;20.70;12.40;;;;;;;3.96;68.07;100053.34;24509;1360;3053221;-59
2021/12/16 04:04:58;;;;;;;21.10;13.30;;;;;;;3.80;67.85;100056.86;24471;1360;3026631;-62
2021/12/16 04:07:30;;;;;;;21.10;13.40;;;;;;;3.59;68.34;100059.05;24481;1358;3027477;-60
2021/12/16 04:10:35;;;;;;;21.00;12.40;;;;;;;3.38;68.84;100058.48;24515;1357;3055118;-61
2021/12/16 04:13:06;;;;;;;20.90;12.90;;;;;;;3.27;69.11;100059.73;24465;1359;3052250;-60
2021/12/16 04:15:36;;;;;;;24.30;15.10;;;;;;;3.12;69.54;100065.77;24515;1354;3026549;-61
2021/12/16 04:18:06;;;;;;;24.30;14.20;;;;;;;2.90;70.71;100067.24;24534;1358;3026282;-60
2021/12/16 04:20:36;;;;;;;27.10;15.30;;;;;;;2.84;71.13;100061.80;24512;1357;3027287;-60
2021/12/16 04:23:08;;;;;;;27.00;15.30;;;;;;;2.78;71.21;100058.99;24431;1360;3026334;-60
2021/12/16 04:25:40;;;;;;;27.10;14.60;;;;;;;2.80;71.36;100056.70;24502;1357;3026704;-61
2021/12/16 04:28:14;;;;;;;26.00;15.50;;;;;;;2.80;71.21;100058.95;24476;1354;3027753;-59
2021/12/16 04:30:44;;;;;;;23.60;14.40;;;;;;;2.80;70.98;100063.10;24491;1357;3051990;-60
2021/12/16 04:33:15;;;;;;;26.90;15.30;;;;;;;2.57;71.86;100069.75;24520;1358;3026374;-61
2021/12/16 04:35:44;;;;;;;23.40;12.10;;;;;;;2.49;72.71;100069.39;24483;1356;3027085;-62
2021/12/16 04:38:13;;;;;;;25.90;14.60;;;;;;;2.98;71.57;100063.98;24483;1351;3051793;-62
2021/12/16 04:40:45;;;;;;;26.90;14.90;;;;;;;3.60;69.91;100051.23;24498;1357;3026651;-61
2021/12/16 04:43:21;;;;;;;25.60;14.90;;;;;;;3.69;68.80;100049.30;24504;1360;3059373;-62
2021/12/16 04:45:56;;;;;;;25.40;13.90;;;;;;;3.27;69.46;100054.00;24434;1357;3049783;-62
2021/12/16 04:48:26;;;;;;;27.50;15.10;;;;;;;2.97;70.37;100055.34;24481;1357;3027248;-62
2021/12/16 04:50:55;;;;;;;22.50;13.80;;;;;;;2.95;70.53;100055.02;24507;1354;3026172;-62
2021/12/16 04:53:25;;;;;;;22.40;13.00;;;;;;;2.88;70.86;100056.20;24458;1360;3048866;-60
2021/12/16 04:55:56;;;;;;;27.30;15.10;;;;;;;2.77;70.96;100059.52;24507;1360;3028443;-62
2021/12/16 04:58:27;;;;;;;26.00;16.20;;;;;;;2.53;71.61;100060.83;24464;1360;3027050;-61
2021/12/16 05:00:56;;;;;;;26.00;14.50;;;;;;;2.38;72.39;100064.75;24467;1358;3028965;-60
2021/12/16 05:03:31;;;;;;;26.30;14.50;;;;;;;2.22;72.83;100059.66;24508;1354;3055959;-62
2021/12/16 05:06:01;;;;;;;26.60;15.90;;;;;;;2.08;73.13;100056.06;24518;1357;3031489;-60
2021/12/16 05:08:31;;;;;;;23.80;14.00;;;;;;;1.87;74.02;100055.88;24479;1358;3027173;-61
2021/12/16 05:11:09;;;;;;;29.40;15.60;;;;;;;2.10;73.24;100050.34;24497;1354;3049566;-61
2021/12/16 05:13:42;;;;;;;28.80;14.70;;;;;;;2.10;73.41;100056.91;24500;1356;3051847;-62
2021/12/16 05:16:12;;;;;;;23.50;13.60;;;;;;;2.51;72.58;100054.99;24512;1358;3028188;-61
2021/12/16 05:18:46;;;;;;;;;;;;;;;3.10;71.08;100055.93;24565;1357;3058605;-61
2021/12/16 05:21:41;;;;;;;28.90;15.10;;;;;;;3.18;70.07;100045.23;24507;1355;3027922;-62
2021/12/16 05:24:25;;;;;;;27.50;14.90;;;;;;;2.86;71.02;100043.43;24489;1354;3054932;-63
2021/12/16 05:27:00;;;;;;;25.60;14.70;;;;;;;2.43;72.68;100048.23;24494;1355;3055542;-62
2021/12/16 05:29:29;;;;;;;30.00;16.70;;;;;;;2.21;73.01;100054.65;24456;1358;3026158;-61
2021/12/16 05:32:01;;;;;;;23.00;14.80;;;;;;;2.20;74.05;100056.92;24466;1354;3026794;-63
2021/12/16 05:34:30;;;;;;;27.30;16.40;;;;;;;2.31;73.39;100062.26;24413;1355;3027345;-62
2021/12/16 05:36:59;;;;;;;26.20;15.40;;;;;;;2.05;73.68;100056.30;24465;1354;3027880;-63
2021/12/16 05:39:28;;;;;;;23.50;14.50;;;;;;;1.97;73.85;100050.90;24414;1357;3049885;-62
2021/12/16 05:42:12;;;;;;;27.10;15.40;;;;;;;2.00;73.50;100056.20;24486;1354;3054906;-63
2021/12/16 05:44:42;;;;;;;30.00;15.70;;;;;;;1.68;74.41;100056.87;24505;1357;3025994;-62
2021/12/16 05:47:11;;;;;;;24.20;14.00;;;;;;;1.86;73.74;100055.73;24486;1354;3050312;-62
2021/12/16 05:49:41;;;;;;;24.90;14.10;;;;;;;2.02;72.98;100051.33;24491;1355;3026605;-62
2021/12/16 05:52:11;;;;;;;23.60;12.80;;;;;;;2.08;72.80;100052.61;24516;1356;3026947;-61
2021/12/16 05:54:40;;;;;;;25.50;13.30;;;;;;;2.66;71.96;100052.29;24530;1354;3053133;-63
2021/12/16 05:57:14;;;;;;;28.10;15.90;;;;;;;3.33;69.66;100047.66;24513;1358;3054726;-67
2021/12/16 05:59:48;;;;;;;26.70;15.30;;;;;;;3.53;68.98;100043.07;24525;1358;3026921;-62
2021/12/16 06:02:18;;;;;;;32.60;16.80;;;;;;;3.34;68.45;100047.30;24497;1355;3025932;-61
2021/12/16 06:04:50;;;;;;;25.50;15.30;;;;;;;2.99;69.40;100048.89;24528;1358;3026427;-61
2021/12/16 06:07:19;;;;;;;28.70;16.40;;;;;;;2.87;69.96;100054.13;24499;1358;3052920;-61
2021/12/16 06:09:48;;;;;;;28.70;17.80;;;;;;;2.38;71.09;100051.41;24505;1355;3026682;-62
2021/12/16 06:12:18;;;;;;;28.30;16.80;;;;;;;2.38;71.62;100052.80;24483;1360;3053169;-61
2021/12/16 06:14:56;;;;;;;29.00;17.20;;;;;;;2.38;71.61;100052.82;24484;1358;3028342;-62
2021/12/16 06:28:27;;;;;;;29.70;17.80;;;;;;;2.35;72.06;100059.27;24481;1354;3070323;-60
2021/12/16 06:30:57;;;;;;;32.00;18.00;;;;;;;2.34;71.84;100055.82;24479;1355;3026480;-62
2021/12/16 06:33:29;;;;;;;29.20;16.20;;;;;;;2.21;72.52;100056.73;24514;1357;3026464;-62
2021/12/16 06:35:59;;;;;;;31.10;17.20;;;;;;;2.28;72.42;100050.39;24436;1361;3026628;-61
2021/12/16 06:38:29;;;;;;;28.60;16.50;;;;;;;2.37;71.99;100047.81;24429;1354;3026911;-62
2021/12/16 06:41:18;;;;;;;28.70;14.00;;;;;;;2.44;72.19;100042.67;24416;1354;3049873;-62
2021/12/16 06:44:17;;;;;;;27.70;14.80;;;;;;;3.18;70.09;100037.42;24498;1360;3055780;-61
2021/12/16 06:46:48;;;;;;;29.70;16.30;;;;;;;3.73;68.06;100039.67;24448;1354;3051400;-61
2021/12/16 06:49:19;;;;;;;32.10;16.60;;;;;;;3.84;67.49;100035.09;24407;1358;3026220;-63
2021/12/16 06:51:57;;;;;;;33.20;17.20;;;;;;;3.82;67.42;100032.17;24510;1358;3027105;-62
2021/12/16 06:54:31;;;;;;;32.40;17.00;;;;;;;3.69;67.54;100039.25;24495;1354;3055226;-62
2021/12/16 06:57:15;;;;;;;27.70;16.20;;;;;;;3.48;68.25;100043.36;24497;1355;3054780;-62
2021/12/16 06:59:54;;;;;;;36.40;18.30;;;;;;;3.42;68.46;100044.19;24492;1352;3056627;-61
2021/12/16 07:05:08;;;;;;;32.50;17.00;;;;;;;3.19;69.47;100059.92;24494;1352;3053088;-62
2021/12/16 07:07:37;;;;;;;32.90;18.00;;;;;;;3.05;69.99;100067.81;24450;1354;3027993;-62
2021/12/16 07:10:08;;;;;;;30.10;16.90;;;;;;;3.00;70.31;100071.20;24467;1359;3026956;-62
2021/12/16 07:12:39;;;;;;;31.80;17.40;;;;;;;3.00;70.40;100072.23;24526;1354;3052665;-60
2021/12/16 07:15:12;;;;;;;39.20;19.50;;;;;;;3.03;70.65;100073.56;24510;1354;3026781;-63
2021/12/16 07:17:41;;;;;;;35.80;18.10;;;;;;;2.95;71.01;100070.77;24514;1358;3026325;-64
2021/12/16 07:20:12;;;;;;;34.60;18.40;;;;;;;2.88;71.25;100073.17;24482;1358;3027139;-62
2021/12/16 07:22:41;;;;;;;38.70;19.50;;;;;;;2.96;70.76;100075.27;24481;1357;3026692;-63
2021/12/16 07:25:10;;;;;;;33.70;19.10;;;;;;;3.07;70.34;100071.06;24509;1357;3026606;-63
2021/12/16 07:27:41;;;;;;;30.70;17.80;;;;;;;3.10;70.14;100068.58;24441;1360;3047051;-62
2021/12/16 07:30:14;;;;;;;32.10;17.30;;;;;;;2.79;70.89;100071.09;24531;1354;3027499;-63
2021/12/16 07:32:43;;;;;;;30.80;17.30;;;;;;;2.79;71.14;100072.64;24509;1357;3026415;-62
2021/12/16 07:35:16;;;;;;;37.80;19.10;;;;;;;2.71;71.40;100077.80;24605;1355;3026381;-63
2021/12/16 07:37:45;;;;;;;32.30;18.70;;;;;;;2.60;71.82;100076.29;24491;1354;3051670;-62
2021/12/16 07:40:15;;;;;;;24.70;14.40;;;;;;;2.53;72.03;100077.95;24503;1351;3028577;-60
2021/12/16 07:42:49;;;;;;;28.80;16.00;;;;;;;2.35;72.10;100083.29;24486;1351;3026739;-61
2021/12/16 07:45:18;;;;;;;26.10;15.20;;;;;;;2.35;72.77;100088.13;24471;1358;3049423;-61
2021/12/16 07:47:47;;;;;;;29.90;15.00;;;;;;;2.34;72.99;100091.09;24469;1356;3026614;-64
2021/12/16 07:50:17;;;;;;;26.90;13.80;;;;;;;2.72;72.34;100091.27;24486;1352;3029936;-62
2021/12/16 07:52:46;;;;;;;24.50;13.60;;;;;;;3.16;70.81;100092.50;24441;1354;3026219;-60
2021/12/16 07:55:15;;;;;;;25.20;13.60;;;;;;;3.33;69.53;100090.60;24466;1360;3056490;-62
2021/12/16 07:57:44;;;;;;;25.80;14.80;;;;;;;3.17;70.10;100092.48;24516;1354;3026210;-63
2021/12/16 08:00:18;;;;;;;25.00;13.90;;;;;;;3.02;70.32;100094.52;24488;1353;3050765;-62
2021/12/16 08:02:47;;;;;;;;;;;;;;;2.82;70.92;100091.27;24522;1358;3055715;-63
2021/12/16 08:05:16;;;;;;;23.40;13.60;;;;;;;2.58;71.57;100090.83;24551;1352;3026040;-62
2021/12/16 08:07:46;;;;;;;26.10;14.80;;;;;;;2.62;71.69;100090.08;24480;1357;3052395;-62
2021/12/16 08:10:18;;;;;;;28.40;15.90;;;;;;;2.56;72.01;100095.20;24512;1357;3028951;-62
2021/12/16 08:12:49;;;;;;;27.20;15.30;;;;;;;2.49;72.60;100092.72;24483;1355;3059200;-60
2021/12/16 08:15:18;;;;;;;36.20;16.60;;;;;;;2.62;72.06;100083.16;24494;1355;3026394;-62
2021/12/16 08:17:48;;;;;;;28.80;15.80;;;;;;;2.50;71.80;100081.13;24510;1354;3026220;-62
2021/12/16 08:20:18;;;;;;;27.50;14.80;;;;;;;2.37;72.31;100081.02;24184;1354;3027606;-61
2021/12/16 08:22:49;;;;;;;24.90;13.40;;;;;;;2.36;72.38;100081.72;24508;1352;3049241;-62
2021/12/16 08:25:19;;;;;;;27.10;15.80;;;;;;;2.50;71.91;100078.52;24507;1360;3027310;-61
2021/12/16 08:27:49;;;;;;;30.90;15.10;;;;;;;2.37;72.39;100081.70;24520;1355;3026619;-62
2021/12/16 08:30:21;;;;;;;25.60;14.90;;;;;;;2.39;72.70;100084.08;24484;1358;3029308;-60
2021/12/16 08:32:50;;;;;;;26.60;16.10;;;;;;;2.41;72.15;100074.19;24564;1355;3053779;-61
2021/12/16 08:35:19;;;;;;;29.90;14.90;;;;;;;2.37;72.42;100069.25;24503;1357;3027391;-62
2021/12/16 08:37:48;;;;;;;26.90;14.60;;;;;;;2.29;71.83;100063.34;24509;1357;3026933;-63
2021/12/16 08:40:20;;;;;;;30.20;15.40;;;;;;;2.14;72.30;100062.38;24505;1354;3055016;-62
2021/12/16 08:42:49;;;;;;;27.40;14.70;;;;;;;2.02;72.92;100062.05;24499;1354;3026888;-63
2021/12/16 08:45:29;;;;;;;25.20;11.40;;;;;;;1.82;73.49;100063.55;24499;1357;3026844;-63
2021/12/16 08:48:03;;;;;;;18.00;11.70;;;;;;;2.40;72.40;100064.52;24491;1357;3051641;-62
2021/12/16 08:50:34;;;;;;;17.60;10.20;;;;;;;3.19;70.09;100057.32;24504;1351;3052603;-63
2021/12/16 08:53:04;;;;;;;22.70;12.60;;;;;;;3.09;69.22;100057.17;24484;1355;3027647;-63
2021/12/16 08:55:33;;;;;;;21.90;12.70;;;;;;;2.86;70.28;100053.80;24494;1354;3026590;-62
2021/12/16 08:58:03;;;;;;;22.20;13.40;;;;;;;2.77;70.49;100053.83;24487;1357;3027197;-62
2021/12/16 09:00:36;;;;;;;23.10;13.20;;;;;;;2.65;70.34;100052.84;24504;1354;3027377;-63
2021/12/16 09:03:15;;;;;;;24.00;13.20;;;;;;;2.53;71.13;100050.98;24514;1352;3054697;-63
2021/12/16 09:05:45;;;;;;;20.20;13.40;;;;;;;2.39;71.43;100049.85;24498;1358;3026406;-63
2021/12/16 09:08:14;;;;;;;21.60;12.80;;;;;;;2.45;71.58;100052.69;24484;1354;3026171;-62
2021/12/16 09:10:44;;;;;;;20.70;12.60;;;;;;;2.38;71.07;100046.06;24524;1354;3053657;-62
2021/12/16 09:13:15;;;;;;;20.30;12.00;;;;;;;2.31;71.61;100047.22;24503;1354;3026543;-61
2021/12/16 09:16:00;;;;;;;24.00;13.20;;;;;;;2.40;71.50;100045.17;24495;1355;3056243;-62
2021/12/16 09:18:30;;;;;;;23.50;13.40;;;;;;;2.40;71.69;100044.12;24492;1354;3051180;-63
2021/12/16 09:21:00;;;;;;;18.80;11.90;;;;;;;2.33;71.92;100046.68;24485;1357;3026650;-63
2021/12/16 09:23:35;;;;;;;16.20;11.40;;;;;;;2.15;71.14;100050.43;24483;1354;3052706;-63
2021/12/16 09:26:04;;;;;;;14.20;10.30;;;;;;;2.11;71.71;100045.84;24481;1359;3026340;-61
2021/12/16 09:28:34;;;;;;;15.80;10.70;;;;;;;2.01;71.58;100040.63;24528;1353;3027076;-62
2021/12/16 09:31:09;;;;;;;15.80;10.80;;;;;;;1.94;72.78;100036.94;24495;1354;3026364;-60
2021/12/16 09:33:42;;;;;;;20.00;12.10;;;;;;;1.94;73.09;100039.36;24538;1358;3055011;-62
2021/12/16 09:36:12;;;;;;;21.80;10.10;;;;;;;2.04;73.00;100033.67;24547;1354;3026777;-61
2021/12/16 09:38:44;;;;;;;16.00;9.60;;;;;;;2.64;71.31;100027.43;24523;1358;3027087;-62
2021/12/16 09:41:13;;;;;;;13.00;8.00;;;;;;;3.29;69.04;100014.69;24479;1353;3027715;-61
2021/12/16 09:43:47;;;;;;;16.10;9.90;;;;;;;3.22;68.38;100008.42;24498;1354;3026573;-61
2021/12/16 09:46:19;;;;;;;11.50;9.30;;;;;;;3.10;68.58;100005.39;24474;1354;3054071;-62
2021/12/16 09:48:48;;;;;;;15.70;11.10;;;;;;;2.88;69.20;100000.48;24512;1356;3026369;-63
2021/12/16 09:51:22;;;;;;;15.90;10.80;;;;;;;2.57;70.26;100004.20;24473;1353;3026737;-62
2021/12/16 09:54:04;;;;;;;17.60;10.80;;;;;;;2.45;70.93;99995.98;24494;1354;3055220;-63
2021/12/16 09:56:34;;;;;;;16.30;9.30;;;;;;;2.39;70.90;99997.80;24494;1360;3051745;-61
2021/12/16 09:59:03;;;;;;;18.50;11.60;;;;;;;2.37;71.14;99992.81;24524;1354;3027271;-63
2021/12/16 10:01:33;;;;;;;15.30;10.60;;;;;;;2.16;71.62;99993.91;24531;1358;3027135;-61
2021/12/16 10:04:03;;;;;;;15.00;10.20;;;;;;;2.07;71.73;99989.23;24516;1355;3026434;-61
2021/12/16 10:06:34;;;;;;;13.60;10.30;;;;;;;1.81;72.39;99982.56;24497;1354;3059299;-61
2021/12/16 10:09:05;;;;;;;12.80;9.40;;;;;;;1.67;73.24;99979.86;24479;1354;3028617;-62
2021/12/16 10:11:35;;;;;;;16.50;10.50;;;;;;;1.62;73.57;99976.14;24512;1354;3026829;-61
2021/12/16 10:14:19;;;;;;;12.80;9.70;;;;;;;1.55;73.70;99970.38;24522;1355;3027438;-61
2021/12/16 10:19:36;;;;;;;9.90;7.20;;;;;;;1.36;74.42;99962.73;24513;1357;3051958;-63
2021/12/16 10:22:19;;;;;;;13.50;8.70;;;;;;;2.03;73.10;99963.01;24484;1357;3026601;-63
2021/12/16 10:24:49;;;;;;;11.30;8.10;;;;;;;2.80;70.61;99952.71;24495;1355;3072457;-62
2021/12/16 10:27:21;;;;;;;11.90;8.40;;;;;;;2.77;69.59;99957.45;24467;1358;3027496;-62
2021/12/16 10:29:56;;;;;;;13.70;9.40;;;;;;;2.49;69.82;99957.49;24516;1354;3026211;-62
2021/12/16 10:32:37;;;;;;;15.80;11.00;;;;;;;2.23;70.40;99953.66;24488;1357;3054918;-61
2021/12/16 10:35:12;;;;;;;14.90;10.30;;;;;;;2.27;70.97;99944.79;24556;1345;3056680;-62
2021/12/16 10:37:49;;;;;;;16.20;11.60;;;;;;;2.05;71.48;99949.50;24502;1355;3052416;-62
2021/12/16 10:40:33;;;;;;;16.10;11.20;;;;;;;2.18;70.97;99945.27;24509;1360;3055665;-62
2021/12/16 10:43:10;;;;;;;14.70;11.40;;;;;;;2.03;71.46;99942.96;24518;1358;3053912;-64
2021/12/16 10:45:47;;;;;;;19.30;11.70;;;;;;;1.96;71.24;99942.40;24481;1357;3069177;-62
2021/12/16 10:48:18;;;;;;;14.50;9.80;;;;;;;1.65;71.74;99934.82;24467;1360;3053574;-61
2021/12/16 10:50:58;;;;;;;17.00;10.40;;;;;;;1.53;72.20;99934.84;24476;1354;3027520;-60
2021/12/16 10:53:57;;;;;;;17.20;10.30;;;;;;;1.47;72.67;99937.17;24462;1344;3051822;-64
2021/12/16 10:56:47;;;;;;;12.40;9.50;;;;;;;1.24;73.80;99930.11;24479;1358;3058875;-62
2021/12/16 10:59:17;;;;;;;16.10;11.10;;;;;;;1.33;73.87;99928.42;24414;1360;3050472;-62
2021/12/16 11:01:47;;;;;;;13.70;8.70;;;;;;;1.32;74.31;99922.91;24414;1354;3026732;-63
2021/12/16 11:04:24;;;;;;;11.30;7.70;;;;;;;1.68;73.06;99925.59;24485;1354;3026905;-62
2021/12/16 11:07:08;;;;;;;9.00;6.90;;;;;;;2.47;70.43;99913.27;24446;1353;3049549;-62
2021/12/16 11:09:42;;;;;;;11.70;8.10;;;;;;;2.70;68.80;99905.37;24437;1357;3055648;-60
2021/12/16 11:12:22;;;;;;;12.50;7.80;;;;;;;2.47;69.24;99901.85;24486;1354;3054092;-61
2021/12/16 11:14:54;;;;;;;14.40;8.20;;;;;;;2.31;69.62;99909.27;24515;1360;3071784;-62
2021/12/16 11:17:26;;;;;;;14.30;8.20;;;;;;;2.17;70.27;99914.89;24481;1354;3026670;-64
2021/12/16 11:20:34;;;;;;;13.70;8.70;;;;;;;2.00;70.49;99912.96;24479;1355;3026400;-64
2021/12/16 11:23:10;;;;;;;12.80;8.90;;;;;;;2.01;70.45;99909.65;24453;1354;3054892;-63
2021/12/16 11:25:41;;;;;;;16.10;9.70;;;;;;;1.91;70.87;99912.26;24507;1361;3057501;-62
2021/12/16 11:28:31;;;;;;;16.90;10.00;;;;;;;1.88;71.11;99915.60;24480;1354;3030114;-62
2021/12/16 11:31:02;;;;;;;13.90;9.20;;;;;;;1.73;71.22;99911.52;24509;1351;3052587;-63
2021/12/16 11:33:42;;;;;;;15.30;9.80;;;;;;;1.65;71.77;99909.08;24509;1354;3026386;-62
2021/12/16 11:36:28;;;;;;;14.00;9.70;;;;;;;1.38;72.68;99907.97;24500;1357;3071166;-61
2021/12/16 11:39:09;;;;;;;13.60;9.70;;;;;;;1.45;72.81;99911.13;24462;1352;3048544;-63
2021/12/16 11:41:47;;;;;;;17.50;10.40;;;;;;;1.46;72.89;99914.23;24480;1354;3055378;-62
2021/12/16 11:44:26;;;;;;;15.30;9.20;;;;;;;1.44;72.70;99917.71;24526;1358;3053036;-62
2021/12/16 11:47:06;;;;;;;17.40;10.70;;;;;;;1.39;72.75;99914.51;24514;1354;3057528;-62
2021/12/16 11:49:39;;;;;;;16.90;8.90;;;;;;;1.34;72.93;99915.80;24454;1352;3050027;-62
2021/12/16 11:52:10;;;;;;;22.80;11.90;;;;;;;1.88;72.21;99910.22;24496;1354;3055847;-62
2021/12/16 11:54:51;;;;;;;15.90;9.60;;;;;;;2.34;70.40;99899.86;24495;1354;3026879;-61
2021/12/16 11:57:25;;;;;;;16.30;9.50;;;;;;;2.39;70.13;99893.35;24486;1353;3068801;-61
2021/12/16 12:00:06;;;;;;;15.30;9.50;;;;;;;2.01;70.96;99889.27;24467;1354;3051450;-63
2021/12/16 12:02:48;;;;;;;21.90;13.10;;;;;;;1.41;72.89;99887.72;24456;1354;3056459;-61
2021/12/16 12:05:20;;;;;;;23.60;13.40;;;;;;;1.36;73.81;99885.21;24490;1352;3052169;-61
2021/12/16 12:07:52;;;;;;;24.50;12.40;;;;;;;1.37;73.62;99884.16;24505;1354;3026345;-62
2021/12/16 12:10:50;;;;;;;22.10;11.60;;;;;;;1.42;73.45;99880.63;24524;1357;3026716;-62
2021/12/16 12:13:24;;;;;;;17.30;10.40;;;;;;;1.40;73.58;99876.69;24502;1360;3053497;-60
2021/12/16 12:15:54;;;;;;;19.60;9.60;;;;;;;1.35;73.85;99866.08;24525;1352;3051287;-62
2021/12/16 12:18:40;;;;;;;17.80;10.40;;;;;;;1.27;73.84;99862.21;24476;1354;3026495;-62
2021/12/16 12:21:28;;;;;;;20.50;11.50;;;;;;;1.24;74.35;99856.94;24499;1355;3052086;-61
2021/12/16 12:24:06;;;;;;;16.90;8.10;;;;;;;1.24;74.55;99856.41;24500;1357;3054841;-59
2021/12/16 12:26:39;;;;;;;16.40;8.70;;;;;;;1.97;72.50;99847.52;24510;1360;3054475;-60
2021/12/16 12:29:14;;;;;;;13.70;8.00;;;;;;;2.39;70.52;99847.54;24495;1358;3026703;-62
2021/12/16 12:31:47;;;;;;;15.40;8.40;;;;;;;2.19;70.76;99845.21;24490;1357;3048478;-61
2021/12/16 12:34:16;;;;;;;16.80;9.10;;;;;;;2.05;70.87;99846.00;24480;1357;3027753;-63
2021/12/16 12:36:46;;;;;;;15.80;10.00;;;;;;;1.70;72.52;99841.30;24495;1357;3026214;-63
2021/12/16 12:39:18;;;;;;;20.30;10.60;;;;;;;1.67;72.97;99844.29;24463;1355;3047848;-63
2021/12/16 12:41:47;;;;;;;19.70;10.90;;;;;;;1.53;72.81;99844.02;24491;1354;3029735;-63
2021/12/16 12:44:18;;;;;;;19.40;11.70;;;;;;;1.47;73.44;99841.52;24471;1357;3026419;-62
2021/12/16 12:46:47;;;;;;;22.60;11.40;;;;;;;1.38;73.90;99838.23;24484;1354;3026426;-62
2021/12/16 12:49:18;;;;;;;15.70;8.50;;;;;;;1.39;73.89;99840.12;24440;1354;3027159;-62
2021/12/16 12:51:48;;;;;;;17.40;9.60;;;;;;;1.18;74.45;99847.20;24507;1360;3026883;-61
2021/12/16 12:54:28;;;;;;;18.40;9.40;;;;;;;1.21;74.40;99847.50;24491;1360;3026753;-62
2021/12/16 12:57:16;;;;;;;19.10;9.70;;;;;;;1.12;74.20;99844.68;24489;1358;3058745;-61
2021/12/16 12:59:45;;;;;;;15.10;7.40;;;;;;;1.15;74.43;99845.17;24459;1361;3051521;-62
2021/12/16 13:02:20;;;;;;;13.50;7.70;;;;;;;1.80;72.94;99839.71;24476;1355;3026528;-61
2021/12/16 13:04:51;;;;;;;;;;;;;;;2.34;71.19;99832.80;24501;1354;3050488;-60
2021/12/16 13:07:56;;;;;;;18.90;8.50;;;;;;;2.33;70.88;99838.86;24452;1357;3026525;-62
2021/12/16 13:10:33;;;;;;;14.20;8.30;;;;;;;2.06;71.50;99836.63;24454;1354;3049048;-61
2021/12/16 13:13:57;;;;;;;14.50;8.90;;;;;;;2.02;71.37;99843.46;24500;1358;3056531;-63
2021/12/16 13:27:35;;;;;;;31.30;14.90;;;;;;;0.88;75.07;99836.77;24473;1355;3054258;-62
2021/12/16 13:30:18;;;;;;;35.00;17.60;;;;;;;0.93;75.70;99831.89;24499;1349;3067705;-62
2021/12/16 13:33:16;;;;;;;;;;;;;;;1.07;75.40;99838.39;24506;1361;3051085;-62
2021/12/16 13:35:51;;;;;;;30.30;13.10;;;;;;;1.98;73.02;99835.56;24419;1358;3055893;-62
2021/12/16 13:38:21;;;;;;;27.90;13.00;;;;;;;2.73;71.00;99828.13;24479;1354;3052619;-62
2021/12/16 13:40:51;;;;;;;31.50;14.70;;;;;;;2.90;70.09;99827.39;24471;1354;3026332;-63
2021/12/16 13:43:28;;;;;;;28.60;14.70;;;;;;;2.61;69.75;99824.94;24483;1357;3026573;-62
2021/12/16 14:02:10;;;;;;;74.80;29.10;;;;;;;2.05;71.26;99820.23;24434;1365;3026788;-64
2021/12/16 14:04:58;;;;;;;57.70;24.50;;;;;;;1.84;72.18;99820.65;24483;1358;3058631;-65
2021/12/16 14:07:55;;;;;;;59.00;21.40;;;;;;;1.72;72.41;99824.67;24455;1359;3049033;-67
2021/12/16 14:10:44;;;;;;;42.70;16.30;;;;;;;1.52;73.37;99817.95;24289;1352;3289239;-66
2021/12/16 14:16:44;;;;;;;46.90;20.10;;;;;;;2.67;70.21;99813.05;24453;1358;3068408;-66
2021/12/16 14:42:06;;;;;;;65.60;28.00;;;;;;;1.01;74.99;99818.98;24489;1353;3048779;-68
2021/12/16 14:50:40;;;;;;;38.70;17.40;;;;;;;1.60;74.14;99814.86;24503;1358;3056678;-66
2021/12/16 14:53:16;;;;;;;23.30;13.20;;;;;;;1.83;72.42;99804.95;24462;1362;3052174;-65
2021/12/16 14:55:45;;;;;;;24.70;14.50;;;;;;;1.52;73.26;99808.81;24508;1361;3053829;-65
2021/12/16 14:58:14;;;;;;;26.10;14.50;;;;;;;1.56;73.59;99808.91;24529;1355;3026594;-66
2021/12/16 15:01:00;;;;;;;31.80;16.50;;;;;;;1.61;73.47;99805.37;24488;1355;3048856;-67
2021/12/16 15:03:36;;;;;;;33.70;17.80;;;;;;;1.44;73.76;99797.58;24476;1358;3053199;-65
2021/12/16 15:06:30;;;;;;;36.30;17.60;;;;;;;1.18;74.66;99791.63;24405;1358;3052352;-66
2021/12/16 15:11:47;;;;;;;49.60;21.10;;;;;;;1.21;74.09;99788.30;24522;1356;3051939;-64